Ben Bolt, Texas
Current Conditions -  °F | °C
As of 9:53 AM on Thursday 30 Oct 2014 (Local Time) from KALI Reporting Station
Broken Clouds Broken Clouds  
Wind Chill: 72°   Ceiling: 300
Heat Index: 72°   Visibility: 7mi
Dew Point: 69°   Wind: 3mph
Humidity: 91%   Direction: 80°E
Pressure: 30.11"   Gusts: NA
Location:  27.65°N, 98.08°W
Report Text: KALI 301453Z AUTO 08003KT 7SM BKN003 22/21 A3011 RMK AO2 SLP193 T02220206 51015
Loading
Personal Weather Stations






























Interactive Weather Map New forecast layout! Learn more

10-Day Weather Forecast

Advertisements
Track Severe Weather on mobile